sensor_id;sensor_type;location;lat;lon;timestamp;P1;durP1;ratioP1;P2;durP2;ratioP2
21030;SDS011;61072;47.808;7.636;2023-04-03T00:00:31;5.18;;;3.88;;
21030;SDS011;61072;47.808;7.636;2023-04-03T00:02:58;5.75;;;4.60;;
21030;SDS011;61072;47.808;7.636;2023-04-03T00:05:25;4.57;;;4.00;;
21030;SDS011;61072;47.808;7.636;2023-04-03T00:07:52;4.57;;;3.90;;
21030;SDS011;61072;47.808;7.636;2023-04-03T00:10:19;5.90;;;3.72;;
21030;SDS011;61072;47.808;7.636;2023-04-03T00:12:45;5.68;;;4.68;;
21030;SDS011;61072;47.808;7.636;2023-04-03T00:15:12;4.93;;;3.85;;
21030;SDS011;61072;47.808;7.636;2023-04-03T00:17:39;5.70;;;4.25;;
21030;SDS011;61072;47.808;7.636;2023-04-03T00:20:06;4.28;;;3.65;;
21030;SDS011;61072;47.808;7.636;2023-04-03T00:22:33;4.43;;;3.90;;
21030;SDS011;61072;47.808;7.636;2023-04-03T00:24:59;7.65;;;3.78;;
21030;SDS011;61072;47.808;7.636;2023-04-03T00:27:26;6.30;;;4.05;;
21030;SDS011;61072;47.808;7.636;2023-04-03T00:29:53;4.85;;;3.58;;
21030;SDS011;61072;47.808;7.636;2023-04-03T00:32:19;5.38;;;3.88;;
21030;SDS011;61072;47.808;7.636;2023-04-03T00:34:46;4.75;;;3.78;;
21030;SDS011;61072;47.808;7.636;2023-04-03T00:37:13;4.95;;;4.07;;
21030;SDS011;61072;47.808;7.636;2023-04-03T00:39:39;4.25;;;3.63;;
21030;SDS011;61072;47.808;7.636;2023-04-03T00:42:06;3.75;;;3.45;;
21030;SDS011;61072;47.808;7.636;2023-04-03T00:47:00;5.70;;;3.75;;
21030;SDS011;61072;47.808;7.636;2023-04-03T00:49:27;5.10;;;3.42;;
21030;SDS011;61072;47.808;7.636;2023-04-03T00:51:54;5.50;;;3.75;;
21030;SDS011;61072;47.808;7.636;2023-04-03T00:54:23;7.97;;;3.50;;
21030;SDS011;61072;47.808;7.636;2023-04-03T00:56:51;4.85;;;3.58;;
21030;SDS011;61072;47.808;7.636;2023-04-03T00:59:24;5.43;;;3.75;;
21030;SDS011;61072;47.808;7.636;2023-04-03T01:01:53;4.72;;;3.67;;
21030;SDS011;61072;47.808;7.636;2023-04-03T01:06:58;4.03;;;3.55;;
21030;SDS011;61072;47.808;7.636;2023-04-03T01:09:28;5.43;;;3.70;;
21030;SDS011;61072;47.808;7.636;2023-04-03T01:12:12;3.92;;;3.25;;
21030;SDS011;61072;47.808;7.636;2023-04-03T01:14:43;4.55;;;3.40;;
21030;SDS011;61072;47.808;7.636;2023-04-03T01:22:40;7.63;;;4.18;;
21030;SDS011;61072;47.808;7.636;2023-04-03T01:25:18;5.05;;;3.35;;
21030;SDS011;61072;47.808;7.636;2023-04-03T01:27:45;5.18;;;3.60;;
21030;SDS011;61072;47.808;7.636;2023-04-03T01:30:12;4.88;;;3.33;;
21030;SDS011;61072;47.808;7.636;2023-04-03T01:32:42;4.47;;;3.47;;
21030;SDS011;61072;47.808;7.636;2023-04-03T01:35:09;3.92;;;3.00;;
21030;SDS011;61072;47.808;7.636;2023-04-03T01:37:36;6.55;;;3.53;;
21030;SDS011;61072;47.808;7.636;2023-04-03T01:40:04;6.32;;;3.30;;
21030;SDS011;61072;47.808;7.636;2023-04-03T01:42:31;3.75;;;3.35;;
21030;SDS011;61072;47.808;7.636;2023-04-03T01:44:58;5.10;;;4.60;;
21030;SDS011;61072;47.808;7.636;2023-04-03T01:47:25;4.57;;;3.70;;
21030;SDS011;61072;47.808;7.636;2023-04-03T01:49:51;7.10;;;3.22;;
21030;SDS011;61072;47.808;7.636;2023-04-03T01:52:18;4.07;;;3.60;;
21030;SDS011;61072;47.808;7.636;2023-04-03T01:54:45;4.68;;;3.70;;
21030;SDS011;61072;47.808;7.636;2023-04-03T01:57:11;5.75;;;3.05;;
21030;SDS011;61072;47.808;7.636;2023-04-03T01:59:39;5.43;;;4.10;;
21030;SDS011;61072;47.808;7.636;2023-04-03T02:02:06;4.68;;;2.97;;
21030;SDS011;61072;47.808;7.636;2023-04-03T02:04:33;5.60;;;3.78;;
21030;SDS011;61072;47.808;7.636;2023-04-03T02:06:59;8.43;;;3.65;;
21030;SDS011;61072;47.808;7.636;2023-04-03T02:09:26;4.03;;;3.30;;
21030;SDS011;61072;47.808;7.636;2023-04-03T02:11:53;4.28;;;3.10;;
21030;SDS011;61072;47.808;7.636;2023-04-03T02:14:20;5.03;;;3.38;;
21030;SDS011;61072;47.808;7.636;2023-04-03T02:16:47;4.53;;;3.33;;
21030;SDS011;61072;47.808;7.636;2023-04-03T02:19:14;4.72;;;3.58;;
21030;SDS011;61072;47.808;7.636;2023-04-03T02:21:41;3.85;;;3.15;;
21030;SDS011;61072;47.808;7.636;2023-04-03T02:24:08;4.78;;;3.03;;
21030;SDS011;61072;47.808;7.636;2023-04-03T02:26:34;5.28;;;3.22;;
21030;SDS011;61072;47.808;7.636;2023-04-03T02:29:01;5.10;;;3.20;;
21030;SDS011;61072;47.808;7.636;2023-04-03T02:31:28;5.63;;;3.70;;
21030;SDS011;61072;47.808;7.636;2023-04-03T02:33:55;4.97;;;3.13;;
21030;SDS011;61072;47.808;7.636;2023-04-03T02:36:22;6.82;;;3.63;;
21030;SDS011;61072;47.808;7.636;2023-04-03T02:38:49;3.95;;;3.10;;
21030;SDS011;61072;47.808;7.636;2023-04-03T02:41:15;4.45;;;3.10;;
21030;SDS011;61072;47.808;7.636;2023-04-03T02:43:42;3.95;;;3.20;;
21030;SDS011;61072;47.808;7.636;2023-04-03T02:46:09;3.60;;;3.20;;
21030;SDS011;61072;47.808;7.636;2023-04-03T02:48:36;4.72;;;3.22;;
21030;SDS011;61072;47.808;7.636;2023-04-03T02:51:03;5.32;;;3.35;;
21030;SDS011;61072;47.808;7.636;2023-04-03T02:53:29;5.13;;;3.42;;
21030;SDS011;61072;47.808;7.636;2023-04-03T02:55:56;6.38;;;3.22;;
21030;SDS011;61072;47.808;7.636;2023-04-03T02:58:23;3.78;;;3.20;;
21030;SDS011;61072;47.808;7.636;2023-04-03T03:00:49;5.43;;;3.40;;
21030;SDS011;61072;47.808;7.636;2023-04-03T03:03:16;4.28;;;3.50;;
21030;SDS011;61072;47.808;7.636;2023-04-03T03:05:43;5.63;;;3.15;;
21030;SDS011;61072;47.808;7.636;2023-04-03T03:08:09;3.30;;;2.95;;
21030;SDS011;61072;47.808;7.636;2023-04-03T03:10:36;5.05;;;3.28;;
21030;SDS011;61072;47.808;7.636;2023-04-03T03:13:03;5.03;;;3.25;;
21030;SDS011;61072;47.808;7.636;2023-04-03T03:15:30;5.45;;;3.70;;
21030;SDS011;61072;47.808;7.636;2023-04-03T03:17:57;6.22;;;3.42;;
21030;SDS011;61072;47.808;7.636;2023-04-03T03:20:24;4.00;;;3.28;;
21030;SDS011;61072;47.808;7.636;2023-04-03T03:22:50;4.80;;;3.17;;
21030;SDS011;61072;47.808;7.636;2023-04-03T03:25:17;3.38;;;2.72;;
21030;SDS011;61072;47.808;7.636;2023-04-03T03:27:44;6.63;;;2.97;;
21030;SDS011;61072;47.808;7.636;2023-04-03T03:30:11;4.50;;;2.90;;
21030;SDS011;61072;47.808;7.636;2023-04-03T03:32:38;3.83;;;2.92;;
21030;SDS011;61072;47.808;7.636;2023-04-03T03:35:05;4.72;;;2.70;;
21030;SDS011;61072;47.808;7.636;2023-04-03T03:37:32;4.65;;;2.90;;
21030;SDS011;61072;47.808;7.636;2023-04-03T03:39:59;3.85;;;2.78;;
21030;SDS011;61072;47.808;7.636;2023-04-03T03:42:26;4.93;;;2.75;;
21030;SDS011;61072;47.808;7.636;2023-04-03T03:44:52;3.30;;;2.38;;
21030;SDS011;61072;47.808;7.636;2023-04-03T03:47:19;3.67;;;2.70;;
21030;SDS011;61072;47.808;7.636;2023-04-03T03:49:46;4.80;;;2.67;;
21030;SDS011;61072;47.808;7.636;2023-04-03T03:52:12;4.20;;;2.70;;
21030;SDS011;61072;47.808;7.636;2023-04-03T03:54:39;5.00;;;2.78;;
21030;SDS011;61072;47.808;7.636;2023-04-03T03:57:06;4.32;;;2.95;;
21030;SDS011;61072;47.808;7.636;2023-04-03T03:59:33;7.70;;;2.22;;
21030;SDS011;61072;47.808;7.636;2023-04-03T04:02:00;4.45;;;2.42;;
21030;SDS011;61072;47.808;7.636;2023-04-03T04:04:27;4.20;;;2.97;;
21030;SDS011;61072;47.808;7.636;2023-04-03T04:06:53;4.13;;;2.40;;
21030;SDS011;61072;47.808;7.636;2023-04-03T04:09:20;4.35;;;2.50;;
21030;SDS011;61072;47.808;7.636;2023-04-03T04:11:47;3.10;;;2.80;;
21030;SDS011;61072;47.808;7.636;2023-04-03T04:14:14;5.18;;;2.67;;
21030;SDS011;61072;47.808;7.636;2023-04-03T04:16:41;4.25;;;2.60;;
21030;SDS011;61072;47.808;7.636;2023-04-03T04:19:08;3.17;;;2.55;;
21030;SDS011;61072;47.808;7.636;2023-04-03T04:21:34;5.15;;;2.78;;
21030;SDS011;61072;47.808;7.636;2023-04-03T04:24:01;5.57;;;3.13;;
21030;SDS011;61072;47.808;7.636;2023-04-03T04:26:28;5.25;;;2.80;;
21030;SDS011;61072;47.808;7.636;2023-04-03T04:28:55;5.80;;;2.85;;
21030;SDS011;61072;47.808;7.636;2023-04-03T04:31:22;4.53;;;3.05;;
21030;SDS011;61072;47.808;7.636;2023-04-03T04:33:49;5.00;;;3.10;;
21030;SDS011;61072;47.808;7.636;2023-04-03T04:36:15;3.40;;;2.92;;
21030;SDS011;61072;47.808;7.636;2023-04-03T04:38:42;3.63;;;3.28;;
21030;SDS011;61072;47.808;7.636;2023-04-03T04:41:10;3.65;;;3.05;;
21030;SDS011;61072;47.808;7.636;2023-04-03T04:43:36;4.35;;;3.05;;
21030;SDS011;61072;47.808;7.636;2023-04-03T04:46:04;4.45;;;3.05;;
21030;SDS011;61072;47.808;7.636;2023-04-03T04:48:32;4.30;;;3.25;;
21030;SDS011;61072;47.808;7.636;2023-04-03T04:51:00;4.15;;;3.13;;
21030;SDS011;61072;47.808;7.636;2023-04-03T04:53:27;4.75;;;2.90;;
21030;SDS011;61072;47.808;7.636;2023-04-03T04:55:54;4.90;;;3.75;;
21030;SDS011;61072;47.808;7.636;2023-04-03T04:58:21;5.78;;;3.00;;
21030;SDS011;61072;47.808;7.636;2023-04-03T05:00:47;4.63;;;3.30;;
21030;SDS011;61072;47.808;7.636;2023-04-03T05:03:14;4.72;;;2.90;;
21030;SDS011;61072;47.808;7.636;2023-04-03T05:05:41;4.25;;;3.20;;
21030;SDS011;61072;47.808;7.636;2023-04-03T05:08:08;2.92;;;2.63;;
21030;SDS011;61072;47.808;7.636;2023-04-03T05:10:34;5.57;;;3.03;;
21030;SDS011;61072;47.808;7.636;2023-04-03T05:13:01;4.43;;;3.20;;
21030;SDS011;61072;47.808;7.636;2023-04-03T05:15:28;3.67;;;2.70;;
21030;SDS011;61072;47.808;7.636;2023-04-03T05:17:54;5.13;;;3.10;;
21030;SDS011;61072;47.808;7.636;2023-04-03T05:20:21;6.78;;;3.28;;
21030;SDS011;61072;47.808;7.636;2023-04-03T05:22:48;4.38;;;3.20;;
21030;SDS011;61072;47.808;7.636;2023-04-03T05:25:14;4.25;;;3.40;;
21030;SDS011;61072;47.808;7.636;2023-04-03T05:27:41;6.03;;;3.40;;
21030;SDS011;61072;47.808;7.636;2023-04-03T05:30:08;4.82;;;3.22;;
21030;SDS011;61072;47.808;7.636;2023-04-03T05:32:35;7.57;;;3.33;;
21030;SDS011;61072;47.808;7.636;2023-04-03T05:35:01;4.82;;;3.58;;
21030;SDS011;61072;47.808;7.636;2023-04-03T05:37:28;4.32;;;3.40;;
21030;SDS011;61072;47.808;7.636;2023-04-03T05:39:55;4.75;;;4.25;;
21030;SDS011;61072;47.808;7.636;2023-04-03T05:42:22;4.88;;;3.47;;
21030;SDS011;61072;47.808;7.636;2023-04-03T05:44:49;5.90;;;3.75;;
21030;SDS011;61072;47.808;7.636;2023-04-03T05:47:16;4.50;;;3.45;;
21030;SDS011;61072;47.808;7.636;2023-04-03T05:49:43;5.45;;;4.00;;
21030;SDS011;61072;47.808;7.636;2023-04-03T05:52:17;4.28;;;3.25;;
21030;SDS011;61072;47.808;7.636;2023-04-03T05:54:48;4.65;;;3.70;;
21030;SDS011;61072;47.808;7.636;2023-04-03T05:57:15;5.93;;;4.32;;
21030;SDS011;61072;47.808;7.636;2023-04-03T05:59:42;4.70;;;4.03;;
21030;SDS011;61072;47.808;7.636;2023-04-03T06:02:14;5.25;;;3.35;;
21030;SDS011;61072;47.808;7.636;2023-04-03T06:04:43;5.45;;;3.65;;
21030;SDS011;61072;47.808;7.636;2023-04-03T06:07:14;7.20;;;3.35;;
21030;SDS011;61072;47.808;7.636;2023-04-03T06:09:43;5.07;;;3.83;;
21030;SDS011;61072;47.808;7.636;2023-04-03T06:12:10;5.15;;;4.20;;
21030;SDS011;61072;47.808;7.636;2023-04-03T06:14:37;5.65;;;3.92;;
21030;SDS011;61072;47.808;7.636;2023-04-03T06:17:04;5.63;;;3.92;;
21030;SDS011;61072;47.808;7.636;2023-04-03T06:19:31;6.18;;;4.45;;
21030;SDS011;61072;47.808;7.636;2023-04-03T06:21:58;8.57;;;4.72;;
21030;SDS011;61072;47.808;7.636;2023-04-03T06:24:24;4.80;;;4.10;;
21030;SDS011;61072;47.808;7.636;2023-04-03T06:26:51;4.75;;;4.22;;
21030;SDS011;61072;47.808;7.636;2023-04-03T06:29:19;5.35;;;4.10;;
21030;SDS011;61072;47.808;7.636;2023-04-03T06:31:46;5.97;;;3.95;;
21030;SDS011;61072;47.808;7.636;2023-04-03T06:34:13;4.47;;;3.53;;
21030;SDS011;61072;47.808;7.636;2023-04-03T06:36:40;4.75;;;4.10;;
21030;SDS011;61072;47.808;7.636;2023-04-03T06:39:08;6.60;;;3.88;;
21030;SDS011;61072;47.808;7.636;2023-04-03T06:41:39;5.10;;;4.18;;
21030;SDS011;61072;47.808;7.636;2023-04-03T06:44:05;6.82;;;4.38;;
21030;SDS011;61072;47.808;7.636;2023-04-03T06:46:32;7.25;;;4.55;;
21030;SDS011;61072;47.808;7.636;2023-04-03T06:48:59;6.97;;;3.75;;
21030;SDS011;61072;47.808;7.636;2023-04-03T06:51:26;7.95;;;4.00;;
21030;SDS011;61072;47.808;7.636;2023-04-03T06:53:56;6.18;;;4.50;;
21030;SDS011;61072;47.808;7.636;2023-04-03T06:56:24;5.90;;;4.05;;
21030;SDS011;61072;47.808;7.636;2023-04-03T06:58:53;5.65;;;3.80;;
21030;SDS011;61072;47.808;7.636;2023-04-03T07:01:20;4.55;;;3.67;;
21030;SDS011;61072;47.808;7.636;2023-04-03T07:03:47;5.32;;;3.70;;
21030;SDS011;61072;47.808;7.636;2023-04-03T07:06:15;6.70;;;4.13;;
21030;SDS011;61072;47.808;7.636;2023-04-03T07:08:43;5.15;;;3.33;;
21030;SDS011;61072;47.808;7.636;2023-04-03T07:11:11;6.70;;;4.00;;
21030;SDS011;61072;47.808;7.636;2023-04-03T07:13:38;5.78;;;3.47;;
21030;SDS011;61072;47.808;7.636;2023-04-03T07:16:05;4.38;;;3.22;;
21030;SDS011;61072;47.808;7.636;2023-04-03T07:18:33;6.82;;;3.53;;
21030;SDS011;61072;47.808;7.636;2023-04-03T07:21:00;5.28;;;3.65;;
21030;SDS011;61072;47.808;7.636;2023-04-03T07:23:27;5.22;;;3.67;;
21030;SDS011;61072;47.808;7.636;2023-04-03T07:25:54;6.88;;;3.45;;
21030;SDS011;61072;47.808;7.636;2023-04-03T07:28:20;6.13;;;3.58;;
21030;SDS011;61072;47.808;7.636;2023-04-03T07:30:52;4.60;;;3.50;;
21030;SDS011;61072;47.808;7.636;2023-04-03T07:33:24;4.22;;;3.40;;
21030;SDS011;61072;47.808;7.636;2023-04-03T07:35:51;7.78;;;3.67;;
21030;SDS011;61072;47.808;7.636;2023-04-03T07:38:18;8.10;;;4.00;;
21030;SDS011;61072;47.808;7.636;2023-04-03T07:40:49;5.38;;;3.97;;
21030;SDS011;61072;47.808;7.636;2023-04-03T07:43:18;5.15;;;3.25;;
21030;SDS011;61072;47.808;7.636;2023-04-03T07:45:47;6.68;;;4.82;;
21030;SDS011;61072;47.808;7.636;2023-04-03T07:48:19;5.93;;;4.03;;
21030;SDS011;61072;47.808;7.636;2023-04-03T07:50:47;5.78;;;3.80;;
21030;SDS011;61072;47.808;7.636;2023-04-03T07:53:13;5.53;;;3.40;;
21030;SDS011;61072;47.808;7.636;2023-04-03T07:55:41;5.50;;;3.72;;
21030;SDS011;61072;47.808;7.636;2023-04-03T07:58:11;5.45;;;4.25;;
21030;SDS011;61072;47.808;7.636;2023-04-03T08:00:40;6.85;;;4.35;;
21030;SDS011;61072;47.808;7.636;2023-04-03T08:03:09;6.05;;;3.85;;
21030;SDS011;61072;47.808;7.636;2023-04-03T08:05:38;8.48;;;4.13;;
21030;SDS011;61072;47.808;7.636;2023-04-03T08:08:07;5.25;;;3.88;;
21030;SDS011;61072;47.808;7.636;2023-04-03T08:10:35;5.78;;;3.85;;
21030;SDS011;61072;47.808;7.636;2023-04-03T08:13:02;5.22;;;3.80;;
21030;SDS011;61072;47.808;7.636;2023-04-03T08:15:29;5.80;;;4.13;;
21030;SDS011;61072;47.808;7.636;2023-04-03T08:17:57;5.78;;;3.83;;
21030;SDS011;61072;47.808;7.636;2023-04-03T08:20:24;5.22;;;3.58;;
21030;SDS011;61072;47.808;7.636;2023-04-03T08:22:51;6.45;;;3.70;;
21030;SDS011;61072;47.808;7.636;2023-04-03T08:25:18;5.50;;;3.85;;
21030;SDS011;61072;47.808;7.636;2023-04-03T08:27:45;4.95;;;3.40;;
21030;SDS011;61072;47.808;7.636;2023-04-03T08:30:12;5.28;;;3.50;;
21030;SDS011;61072;47.808;7.636;2023-04-03T08:32:40;4.25;;;3.22;;
21030;SDS011;61072;47.808;7.636;2023-04-03T08:35:10;4.97;;;3.60;;
21030;SDS011;61072;47.808;7.636;2023-04-03T08:37:38;4.45;;;3.47;;
21030;SDS011;61072;47.808;7.636;2023-04-03T08:40:10;4.05;;;3.50;;
21030;SDS011;61072;47.808;7.636;2023-04-03T08:45:37;3.45;;;2.83;;
21030;SDS011;61072;47.808;7.636;2023-04-03T08:48:19;3.65;;;3.10;;
21030;SDS011;61072;47.808;7.636;2023-04-03T08:50:53;5.93;;;3.63;;
21030;SDS011;61072;47.808;7.636;2023-04-03T08:53:28;5.32;;;4.30;;
21030;SDS011;61072;47.808;7.636;2023-04-03T08:55:58;4.97;;;3.42;;
21030;SDS011;61072;47.808;7.636;2023-04-03T08:58:32;4.38;;;3.72;;
21030;SDS011;61072;47.808;7.636;2023-04-03T09:01:20;6.78;;;3.20;;
21030;SDS011;61072;47.808;7.636;2023-04-03T09:03:47;6.43;;;3.08;;
21030;SDS011;61072;47.808;7.636;2023-04-03T09:14:33;5.15;;;3.67;;
21030;SDS011;61072;47.808;7.636;2023-04-03T09:20:11;3.08;;;2.70;;
21030;SDS011;61072;47.808;7.636;2023-04-03T09:22:46;3.33;;;3.03;;
21030;SDS011;61072;47.808;7.636;2023-04-03T09:28:15;2.92;;;2.38;;
21030;SDS011;61072;47.808;7.636;2023-04-03T09:30:41;3.72;;;2.85;;
21030;SDS011;61072;47.808;7.636;2023-04-03T09:33:08;4.47;;;2.55;;
21030;SDS011;61072;47.808;7.636;2023-04-03T09:35:37;4.43;;;2.28;;
21030;SDS011;61072;47.808;7.636;2023-04-03T09:38:15;2.88;;;1.50;;
21030;SDS011;61072;47.808;7.636;2023-04-03T09:40:50;1.70;;;1.45;;
21030;SDS011;61072;47.808;7.636;2023-04-03T09:43:38;1.80;;;1.50;;
21030;SDS011;61072;47.808;7.636;2023-04-03T09:46:19;1.80;;;1.30;;
21030;SDS011;61072;47.808;7.636;2023-04-03T09:48:50;2.17;;;1.52;;
21030;SDS011;61072;47.808;7.636;2023-04-03T09:51:33;2.40;;;1.80;;
21030;SDS011;61072;47.808;7.636;2023-04-03T09:54:00;4.00;;;2.00;;
21030;SDS011;61072;47.808;7.636;2023-04-03T09:57:10;1.90;;;1.63;;
21030;SDS011;61072;47.808;7.636;2023-04-03T09:59:41;1.63;;;1.52;;
21030;SDS011;61072;47.808;7.636;2023-04-03T10:02:47;2.13;;;1.75;;
21030;SDS011;61072;47.808;7.636;2023-04-03T10:05:25;5.18;;;1.75;;
21030;SDS011;61072;47.808;7.636;2023-04-03T10:08:09;1.95;;;1.70;;
21030;SDS011;61072;47.808;7.636;2023-04-03T10:10:37;1.55;;;1.45;;
21030;SDS011;61072;47.808;7.636;2023-04-03T10:13:10;2.25;;;1.52;;
21030;SDS011;61072;47.808;7.636;2023-04-03T10:15:56;2.33;;;2.00;;
21030;SDS011;61072;47.808;7.636;2023-04-03T10:18:42;2.03;;;1.83;;
21030;SDS011;61072;47.808;7.636;2023-04-03T10:21:19;2.58;;;1.70;;
21030;SDS011;61072;47.808;7.636;2023-04-03T10:24:10;1.58;;;1.45;;
21030;SDS011;61072;47.808;7.636;2023-04-03T10:34:43;2.53;;;1.95;;
21030;SDS011;61072;47.808;7.636;2023-04-03T10:37:30;2.78;;;1.80;;
21030;SDS011;61072;47.808;7.636;2023-04-03T10:43:32;4.10;;;1.52;;
21030;SDS011;61072;47.808;7.636;2023-04-03T10:54:25;1.45;;;1.35;;
21030;SDS011;61072;47.808;7.636;2023-04-03T10:56:57;2.38;;;1.42;;
21030;SDS011;61072;47.808;7.636;2023-04-03T11:04:59;2.42;;;1.90;;
21030;SDS011;61072;47.808;7.636;2023-04-03T11:10:21;2.30;;;1.90;;
21030;SDS011;61072;47.808;7.636;2023-04-03T11:12:58;1.98;;;1.65;;
21030;SDS011;61072;47.808;7.636;2023-04-03T11:15:34;2.60;;;1.70;;
21030;SDS011;61072;47.808;7.636;2023-04-03T11:18:02;1.73;;;1.60;;
21030;SDS011;61072;47.808;7.636;2023-04-03T11:20:37;2.08;;;1.50;;
21030;SDS011;61072;47.808;7.636;2023-04-03T11:23:16;2.35;;;1.45;;
21030;SDS011;61072;47.808;7.636;2023-04-03T11:26:10;2.58;;;1.58;;
21030;SDS011;61072;47.808;7.636;2023-04-03T11:28:39;2.03;;;1.83;;
21030;SDS011;61072;47.808;7.636;2023-04-03T11:31:15;2.55;;;1.20;;
21030;SDS011;61072;47.808;7.636;2023-04-03T11:36:32;2.00;;;1.67;;
21030;SDS011;61072;47.808;7.636;2023-04-03T11:39:25;2.83;;;1.40;;
21030;SDS011;61072;47.808;7.636;2023-04-03T11:42:12;1.27;;;1.13;;
21030;SDS011;61072;47.808;7.636;2023-04-03T11:44:39;2.80;;;1.70;;
21030;SDS011;61072;47.808;7.636;2023-04-03T11:47:10;1.98;;;1.30;;
21030;SDS011;61072;47.808;7.636;2023-04-03T11:58:01;1.27;;;1.13;;
21030;SDS011;61072;47.808;7.636;2023-04-03T12:08:27;1.15;;;1.02;;
21030;SDS011;61072;47.808;7.636;2023-04-03T12:13:35;1.50;;;1.30;;
21030;SDS011;61072;47.808;7.636;2023-04-03T12:16:04;2.08;;;1.45;;
21030;SDS011;61072;47.808;7.636;2023-04-03T12:21:11;3.28;;;1.60;;
21030;SDS011;61072;47.808;7.636;2023-04-03T12:29:15;1.15;;;1.05;;
21030;SDS011;61072;47.808;7.636;2023-04-03T12:34:38;1.83;;;1.35;;
21030;SDS011;61072;47.808;7.636;2023-04-03T12:45:01;1.90;;;1.55;;
21030;SDS011;61072;47.808;7.636;2023-04-03T12:47:34;1.65;;;1.38;;
21030;SDS011;61072;47.808;7.636;2023-04-03T12:50:04;1.92;;;1.48;;
21030;SDS011;61072;47.808;7.636;2023-04-03T12:52:51;1.83;;;1.30;;
21030;SDS011;61072;47.808;7.636;2023-04-03T12:55:22;2.17;;;1.55;;
21030;SDS011;61072;47.808;7.636;2023-04-03T12:57:49;1.77;;;1.55;;
21030;SDS011;61072;47.808;7.636;2023-04-03T13:00:19;1.95;;;1.50;;
21030;SDS011;61072;47.808;7.636;2023-04-03T13:02:54;3.92;;;1.70;;
21030;SDS011;61072;47.808;7.636;2023-04-03T13:05:22;2.60;;;1.45;;
21030;SDS011;61072;47.808;7.636;2023-04-03T13:07:54;3.03;;;1.77;;
21030;SDS011;61072;47.808;7.636;2023-04-03T13:10:25;2.85;;;1.65;;
21030;SDS011;61072;47.808;7.636;2023-04-03T13:12:56;5.78;;;1.40;;
21030;SDS011;61072;47.808;7.636;2023-04-03T13:15:29;1.83;;;1.60;;
21030;SDS011;61072;47.808;7.636;2023-04-03T13:18:05;2.50;;;1.83;;
21030;SDS011;61072;47.808;7.636;2023-04-03T13:20:47;4.00;;;1.52;;
21030;SDS011;61072;47.808;7.636;2023-04-03T13:23:14;1.58;;;1.48;;
21030;SDS011;61072;47.808;7.636;2023-04-03T13:25:46;2.65;;;1.40;;
21030;SDS011;61072;47.808;7.636;2023-04-03T13:28:23;3.30;;;1.50;;
21030;SDS011;61072;47.808;7.636;2023-04-03T13:30:59;2.53;;;1.80;;
21030;SDS011;61072;47.808;7.636;2023-04-03T13:33:52;1.52;;;1.42;;
21030;SDS011;61072;47.808;7.636;2023-04-03T13:36:24;2.22;;;1.67;;
21030;SDS011;61072;47.808;7.636;2023-04-03T13:41:51;2.10;;;1.60;;
21030;SDS011;61072;47.808;7.636;2023-04-03T13:46:50;1.52;;;1.40;;
21030;SDS011;61072;47.808;7.636;2023-04-03T13:51:57;2.20;;;1.80;;
21030;SDS011;61072;47.808;7.636;2023-04-03T13:57:11;3.83;;;1.52;;
21030;SDS011;61072;47.808;7.636;2023-04-03T13:59:40;1.63;;;1.30;;
21030;SDS011;61072;47.808;7.636;2023-04-03T14:02:12;2.75;;;1.33;;
21030;SDS011;61072;47.808;7.636;2023-04-03T14:07:14;3.30;;;1.80;;
21030;SDS011;61072;47.808;7.636;2023-04-03T14:09:42;2.70;;;2.00;;
21030;SDS011;61072;47.808;7.636;2023-04-03T14:12:30;2.90;;;1.75;;
21030;SDS011;61072;47.808;7.636;2023-04-03T14:15:00;1.90;;;1.33;;
21030;SDS011;61072;47.808;7.636;2023-04-03T14:17:28;1.60;;;1.50;;
21030;SDS011;61072;47.808;7.636;2023-04-03T14:19:56;3.25;;;1.50;;
21030;SDS011;61072;47.808;7.636;2023-04-03T14:22:25;2.38;;;1.70;;
21030;SDS011;61072;47.808;7.636;2023-04-03T14:24:55;2.10;;;1.52;;
21030;SDS011;61072;47.808;7.636;2023-04-03T14:27:23;2.30;;;1.35;;
21030;SDS011;61072;47.808;7.636;2023-04-03T14:29:53;2.72;;;1.90;;
21030;SDS011;61072;47.808;7.636;2023-04-03T14:32:21;2.70;;;1.60;;
21030;SDS011;61072;47.808;7.636;2023-04-03T14:34:50;1.58;;;1.42;;
21030;SDS011;61072;47.808;7.636;2023-04-03T14:37:19;3.33;;;1.77;;
21030;SDS011;61072;47.808;7.636;2023-04-03T14:39:51;3.20;;;1.60;;
21030;SDS011;61072;47.808;7.636;2023-04-03T14:42:21;2.17;;;1.50;;
21030;SDS011;61072;47.808;7.636;2023-04-03T14:44:50;2.95;;;1.67;;
21030;SDS011;61072;47.808;7.636;2023-04-03T14:47:22;2.22;;;1.67;;
21030;SDS011;61072;47.808;7.636;2023-04-03T14:49:57;2.35;;;1.35;;
21030;SDS011;61072;47.808;7.636;2023-04-03T14:54:56;1.60;;;1.40;;
21030;SDS011;61072;47.808;7.636;2023-04-03T14:57:24;3.03;;;1.92;;
21030;SDS011;61072;47.808;7.636;2023-04-03T14:59:52;4.57;;;1.80;;
21030;SDS011;61072;47.808;7.636;2023-04-03T15:04:53;2.15;;;1.58;;
21030;SDS011;61072;47.808;7.636;2023-04-03T15:07:24;3.97;;;1.70;;
21030;SDS011;61072;47.808;7.636;2023-04-03T15:09:53;2.30;;;1.48;;
21030;SDS011;61072;47.808;7.636;2023-04-03T15:12:22;2.15;;;1.60;;
21030;SDS011;61072;47.808;7.636;2023-04-03T15:14:50;1.70;;;1.45;;
21030;SDS011;61072;47.808;7.636;2023-04-03T15:17:27;3.08;;;1.60;;
21030;SDS011;61072;47.808;7.636;2023-04-03T15:19:53;3.60;;;1.73;;
21030;SDS011;61072;47.808;7.636;2023-04-03T15:22:20;3.00;;;1.60;;
21030;SDS011;61072;47.808;7.636;2023-04-03T15:24:47;2.83;;;1.83;;
21030;SDS011;61072;47.808;7.636;2023-04-03T15:27:14;3.28;;;1.83;;
21030;SDS011;61072;47.808;7.636;2023-04-03T15:29:42;5.18;;;1.60;;
21030;SDS011;61072;47.808;7.636;2023-04-03T15:32:10;3.85;;;1.80;;
21030;SDS011;61072;47.808;7.636;2023-04-03T15:34:38;1.83;;;1.50;;
21030;SDS011;61072;47.808;7.636;2023-04-03T15:37:05;3.72;;;1.95;;
21030;SDS011;61072;47.808;7.636;2023-04-03T15:39:32;2.35;;;1.48;;
21030;SDS011;61072;47.808;7.636;2023-04-03T15:41:59;2.13;;;1.58;;
21030;SDS011;61072;47.808;7.636;2023-04-03T15:44:34;2.53;;;1.60;;
21030;SDS011;61072;47.808;7.636;2023-04-03T15:47:01;1.55;;;1.40;;
21030;SDS011;61072;47.808;7.636;2023-04-03T15:49:28;2.40;;;1.73;;
21030;SDS011;61072;47.808;7.636;2023-04-03T15:51:56;3.95;;;1.50;;
21030;SDS011;61072;47.808;7.636;2023-04-03T15:54:23;2.25;;;1.60;;
21030;SDS011;61072;47.808;7.636;2023-04-03T15:56:52;2.40;;;1.60;;
21030;SDS011;61072;47.808;7.636;2023-04-03T15:59:19;2.75;;;1.80;;
21030;SDS011;61072;47.808;7.636;2023-04-03T16:01:46;3.60;;;1.75;;
21030;SDS011;61072;47.808;7.636;2023-04-03T16:04:14;2.90;;;1.60;;
21030;SDS011;61072;47.808;7.636;2023-04-03T16:06:42;2.35;;;1.70;;
21030;SDS011;61072;47.808;7.636;2023-04-03T16:09:09;2.63;;;1.60;;
21030;SDS011;61072;47.808;7.636;2023-04-03T16:11:36;3.28;;;1.73;;
21030;SDS011;61072;47.808;7.636;2023-04-03T16:14:06;2.75;;;1.65;;
21030;SDS011;61072;47.808;7.636;2023-04-03T16:16:33;2.88;;;1.63;;
21030;SDS011;61072;47.808;7.636;2023-04-03T16:19:01;2.58;;;1.42;;
21030;SDS011;61072;47.808;7.636;2023-04-03T16:21:28;5.47;;;3.33;;
21030;SDS011;61072;47.808;7.636;2023-04-03T16:23:56;3.42;;;1.90;;
21030;SDS011;61072;47.808;7.636;2023-04-03T16:26:24;4.57;;;1.95;;
21030;SDS011;61072;47.808;7.636;2023-04-03T16:28:51;3.20;;;1.92;;
21030;SDS011;61072;47.808;7.636;2023-04-03T16:31:19;2.78;;;2.20;;
21030;SDS011;61072;47.808;7.636;2023-04-03T16:33:46;3.33;;;1.70;;
21030;SDS011;61072;47.808;7.636;2023-04-03T16:36:13;4.32;;;1.50;;
21030;SDS011;61072;47.808;7.636;2023-04-03T16:38:40;1.77;;;1.63;;
21030;SDS011;61072;47.808;7.636;2023-04-03T16:41:06;6.03;;;2.03;;
21030;SDS011;61072;47.808;7.636;2023-04-03T16:43:33;2.65;;;1.80;;
21030;SDS011;61072;47.808;7.636;2023-04-03T16:46:01;3.78;;;2.17;;
21030;SDS011;61072;47.808;7.636;2023-04-03T16:48:29;3.63;;;2.63;;
21030;SDS011;61072;47.808;7.636;2023-04-03T16:50:56;5.20;;;2.58;;
21030;SDS011;61072;47.808;7.636;2023-04-03T16:53:23;4.07;;;2.17;;
21030;SDS011;61072;47.808;7.636;2023-04-03T16:55:51;3.63;;;2.03;;